Thursday, January 18, 2018, 8:57 PM EST
Back to Local

KBDL, Bradley International Airport

Location: Windsor Locks, CT, United States Lat: 41.933
Local Time: 8:57 PM EST ( 1:57 GMT) Lon: -72.683
Time Zone: US/Eastern Elev: 173 ft

Show me the last for .
Show Coded

Time T Td Feel RH Dir Speed Gust Alt SLP Vis Weather Sky Remarks
2018-01-18 19:51 21 13 11 70 280° 8 - 29.99 30.00 10 FEW030 None
2018-01-18 18:51 23 13 13 64 310° 9 - 29.97 29.98 10 CLR Snow depth: 2"
6-hr Min Temp (7pm): 23.0°F
6-hr Max Temp (7pm): 28.9°F
2018-01-18 17:51 24 13 14 61 320° 10 - 29.95 29.96 10 FEW030 None
2018-01-18 16:51 25 14 14 62 310° 12 - 29.93 29.93 10 FEW030 None
2018-01-18 15:51 28 14 14 55 330° 14 22 29.89 29.90 10 FEW032 None
2018-01-18 14:51 28 14 19 55 340° 10 - 29.89 29.90 10 CLR None
2018-01-18 13:51 28 15 21 57 360° 7 - 29.90 29.91 10 CLR None
2018-01-18 12:51 27 13 13 54 330° 12 21 29.93 29.93 10 CLR Snow depth: 3"
6-hr Min Temp (1pm): 6.1°F
6-hr Max Temp (1pm): 28.0°F
2018-01-18 11:51 27 13 16 54 310° 14 - 29.96 29.97 10 FEW200 None
2018-01-18 10:51 26 12 22 54 330° 3 - 30.00 30.01 10 FEW200 None
2018-01-18 09:51 23 13 - 64 - Calm - 30.01 30.02 10 FEW200 None
2018-01-18 08:51 17 11 9 76 270° 6 - 30.02 30.02 10 FEW200 None
2018-01-18 07:51 6 4 -1 90 280° 3 - 30.02 30.02 8 FEW150 None
2018-01-18 06:51 6 4 -3 90 30° 5 - 30.00 30.01 10 FEW250 24-hr Precip Total (7am): 0.08"
Snow depth: 3"
6-hr Min Temp (7am): 3.9°F
6-hr Max Temp (7am): 15.1°F
2018-01-18 05:51 5 2 - 86 - Calm - 30.01 30.01 10 FEW250 None
2018-01-18 04:51 9 7 - 91 - Calm - 30.02 30.03 10 CLR None
2018-01-18 03:51 12 9 - 87 - Calm - 30.05 30.05 10 CLR None
2018-01-18 02:51 12 9 6 87 150° 3 - 30.07 30.08 10 CLR None
2018-01-18 01:51 11 7 5 83 360° 3 - 30.08 30.09 10 FEW250 None
2018-01-18 00:51 14 9 6 79 10° 5 - 30.09 30.09 10 FEW250 6-hr Precip Total (1am): 0.00"
Snow depth: 3"
6-hr Min Temp (1am): 14.0°F
6-hr Max Temp (1am): 27.0°F
2018-01-17 23:51 17 10 7 73 330° 8 - 30.12 30.13 10 FEW250 24-hr Min Temp (12am): 17.1°F
24-hr Max Temp (12am): 32.0°F
2018-01-17 22:51 20 11 8 67 330° 12 - 30.14 30.14 10 FEW250 None
2018-01-17 21:51 21 13 15 70 340° 5 - 30.13 30.14 10 FEW045 FEW250 1-hr Precip Total: Trace
6-hr Precip Total (10pm): 0.00"

Support USWX by starting your Amazon purchase here.